Terminal Aerodrome Forecast
Issued by NWS

Home | Current Version | Previous Version | Text Only | Print | Product List | Glossary On
Versions: 1 2 3 4 5 6 7 8 9 10 11 12 13 14 15 16 17 18 19 20 21 22 23 24 25 26 27 28 29 30 31 32 33 34
000
FTUS43 KPAH 091000 AAA
TAFOWB
TAF AMD
KOWB 091010Z 0910/1006 25003KT 3SM BR SCT060 BKN250
      TEMPO 0910/0913 00000KT 1/4SM FG
     FM091500 29008KT P6SM SCT040
     FM100000 VRB02KT P6SM SKC=

USA.gov is the U.S. government's official web portal to all federal, state and local government web resources and services.